sensor_id;sensor_type;location;lat;lon;timestamp;P1;durP1;ratioP1;P2;durP2;ratioP2
13847;SDS011;6994;49.752;6.094;2023-04-06T00:01:40;5.15;;;4.10;;
13847;SDS011;6994;49.752;6.094;2023-04-06T00:04:07;7.82;;;5.05;;
13847;SDS011;6994;49.752;6.094;2023-04-06T00:06:34;7.37;;;5.12;;
13847;SDS011;6994;49.752;6.094;2023-04-06T00:09:02;6.32;;;4.10;;
13847;SDS011;6994;49.752;6.094;2023-04-06T00:11:29;5.55;;;4.87;;
13847;SDS011;6994;49.752;6.094;2023-04-06T00:13:56;6.53;;;4.50;;
13847;SDS011;6994;49.752;6.094;2023-04-06T00:16:23;8.70;;;5.25;;
13847;SDS011;6994;49.752;6.094;2023-04-06T00:18:50;5.20;;;4.40;;
13847;SDS011;6994;49.752;6.094;2023-04-06T00:21:18;10.15;;;4.25;;
13847;SDS011;6994;49.752;6.094;2023-04-06T00:23:45;6.05;;;4.45;;
13847;SDS011;6994;49.752;6.094;2023-04-06T00:26:12;6.68;;;4.37;;
13847;SDS011;6994;49.752;6.094;2023-04-06T00:28:40;6.70;;;4.32;;
13847;SDS011;6994;49.752;6.094;2023-04-06T00:31:07;6.35;;;4.15;;
13847;SDS011;6994;49.752;6.094;2023-04-06T00:33:34;5.95;;;4.55;;
13847;SDS011;6994;49.752;6.094;2023-04-06T00:36:02;5.47;;;3.97;;
13847;SDS011;6994;49.752;6.094;2023-04-06T00:38:29;6.05;;;4.60;;
13847;SDS011;6994;49.752;6.094;2023-04-06T00:40:56;7.50;;;5.03;;
13847;SDS011;6994;49.752;6.094;2023-04-06T00:43:23;7.10;;;4.93;;
13847;SDS011;6994;49.752;6.094;2023-04-06T00:45:50;8.07;;;6.47;;
13847;SDS011;6994;49.752;6.094;2023-04-06T00:48:18;7.15;;;4.80;;
13847;SDS011;6994;49.752;6.094;2023-04-06T00:50:45;7.87;;;4.97;;
13847;SDS011;6994;49.752;6.094;2023-04-06T00:53:12;10.27;;;5.40;;
13847;SDS011;6994;49.752;6.094;2023-04-06T00:55:39;7.03;;;4.90;;
13847;SDS011;6994;49.752;6.094;2023-04-06T00:58:06;10.77;;;5.95;;
13847;SDS011;6994;49.752;6.094;2023-04-06T01:00:34;6.35;;;4.85;;
13847;SDS011;6994;49.752;6.094;2023-04-06T01:03:02;6.87;;;4.65;;
13847;SDS011;6994;49.752;6.094;2023-04-06T01:05:29;6.72;;;5.07;;
13847;SDS011;6994;49.752;6.094;2023-04-06T01:07:56;8.43;;;5.37;;
13847;SDS011;6994;49.752;6.094;2023-04-06T01:10:27;8.95;;;7.20;;
13847;SDS011;6994;49.752;6.094;2023-04-06T01:12:50;12.52;;;5.70;;
13847;SDS011;6994;49.752;6.094;2023-04-06T01:15:18;8.27;;;4.93;;
13847;SDS011;6994;49.752;6.094;2023-04-06T01:17:46;6.97;;;4.87;;
13847;SDS011;6994;49.752;6.094;2023-04-06T01:20:13;6.28;;;4.68;;
13847;SDS011;6994;49.752;6.094;2023-04-06T01:22:41;10.77;;;5.25;;
13847;SDS011;6994;49.752;6.094;2023-04-06T01:25:08;7.53;;;5.55;;
13847;SDS011;6994;49.752;6.094;2023-04-06T01:27:35;9.27;;;5.03;;
13847;SDS011;6994;49.752;6.094;2023-04-06T01:30:04;11.43;;;8.00;;
13847;SDS011;6994;49.752;6.094;2023-04-06T01:32:31;7.93;;;5.70;;
13847;SDS011;6994;49.752;6.094;2023-04-06T01:34:58;8.25;;;5.97;;
13847;SDS011;6994;49.752;6.094;2023-04-06T01:37:25;8.30;;;5.87;;
13847;SDS011;6994;49.752;6.094;2023-04-06T01:39:52;7.68;;;5.82;;
13847;SDS011;6994;49.752;6.094;2023-04-06T01:42:20;8.90;;;5.90;;
13847;SDS011;6994;49.752;6.094;2023-04-06T01:44:47;8.18;;;5.60;;
13847;SDS011;6994;49.752;6.094;2023-04-06T01:47:14;9.80;;;5.50;;
13847;SDS011;6994;49.752;6.094;2023-04-06T01:49:41;8.55;;;5.82;;
13847;SDS011;6994;49.752;6.094;2023-04-06T01:52:08;7.62;;;5.85;;
13847;SDS011;6994;49.752;6.094;2023-04-06T01:54:36;9.07;;;5.97;;
13847;SDS011;6994;49.752;6.094;2023-04-06T01:57:03;9.20;;;7.30;;
13847;SDS011;6994;49.752;6.094;2023-04-06T01:59:30;10.32;;;6.30;;
13847;SDS011;6994;49.752;6.094;2023-04-06T02:01:57;7.53;;;5.18;;
13847;SDS011;6994;49.752;6.094;2023-04-06T02:04:24;8.65;;;5.78;;
13847;SDS011;6994;49.752;6.094;2023-04-06T02:06:52;6.72;;;5.05;;
13847;SDS011;6994;49.752;6.094;2023-04-06T02:09:19;7.95;;;5.18;;
13847;SDS011;6994;49.752;6.094;2023-04-06T02:11:46;9.97;;;7.67;;
13847;SDS011;6994;49.752;6.094;2023-04-06T02:14:13;7.68;;;6.28;;
13847;SDS011;6994;49.752;6.094;2023-04-06T02:16:40;10.60;;;7.93;;
13847;SDS011;6994;49.752;6.094;2023-04-06T02:19:08;9.40;;;7.18;;
13847;SDS011;6994;49.752;6.094;2023-04-06T02:21:35;7.72;;;6.07;;
13847;SDS011;6994;49.752;6.094;2023-04-06T02:24:02;8.23;;;5.60;;
13847;SDS011;6994;49.752;6.094;2023-04-06T02:26:29;9.40;;;7.27;;
13847;SDS011;6994;49.752;6.094;2023-04-06T02:28:56;8.20;;;5.82;;
13847;SDS011;6994;49.752;6.094;2023-04-06T02:31:24;10.20;;;5.70;;
13847;SDS011;6994;49.752;6.094;2023-04-06T02:33:51;7.57;;;6.03;;
13847;SDS011;6994;49.752;6.094;2023-04-06T02:36:18;9.60;;;6.25;;
13847;SDS011;6994;49.752;6.094;2023-04-06T02:38:45;8.57;;;5.25;;
13847;SDS011;6994;49.752;6.094;2023-04-06T02:41:12;11.57;;;8.10;;
13847;SDS011;6994;49.752;6.094;2023-04-06T02:43:40;10.10;;;6.75;;
13847;SDS011;6994;49.752;6.094;2023-04-06T02:46:07;10.03;;;8.30;;
13847;SDS011;6994;49.752;6.094;2023-04-06T02:48:34;10.07;;;6.87;;
13847;SDS011;6994;49.752;6.094;2023-04-06T02:51:01;12.23;;;8.37;;
13847;SDS011;6994;49.752;6.094;2023-04-06T02:53:28;12.07;;;6.70;;
13847;SDS011;6994;49.752;6.094;2023-04-06T02:55:56;11.37;;;8.20;;
13847;SDS011;6994;49.752;6.094;2023-04-06T02:58:23;8.02;;;6.10;;
13847;SDS011;6994;49.752;6.094;2023-04-06T03:00:50;8.25;;;6.15;;
13847;SDS011;6994;49.752;6.094;2023-04-06T03:03:17;11.40;;;6.28;;
13847;SDS011;6994;49.752;6.094;2023-04-06T03:05:44;8.82;;;6.15;;
13847;SDS011;6994;49.752;6.094;2023-04-06T03:08:12;10.80;;;6.28;;
13847;SDS011;6994;49.752;6.094;2023-04-06T03:10:39;9.45;;;5.90;;
13847;SDS011;6994;49.752;6.094;2023-04-06T03:13:06;8.93;;;5.25;;
13847;SDS011;6994;49.752;6.094;2023-04-06T03:15:33;10.25;;;6.20;;
13847;SDS011;6994;49.752;6.094;2023-04-06T03:18:01;8.02;;;5.40;;
13847;SDS011;6994;49.752;6.094;2023-04-06T03:20:29;8.07;;;5.95;;
13847;SDS011;6994;49.752;6.094;2023-04-06T03:22:56;9.57;;;5.93;;
13847;SDS011;6994;49.752;6.094;2023-04-06T03:25:24;10.48;;;5.72;;
13847;SDS011;6994;49.752;6.094;2023-04-06T03:27:51;9.93;;;8.45;;
13847;SDS011;6994;49.752;6.094;2023-04-06T03:30:18;11.73;;;7.07;;
13847;SDS011;6994;49.752;6.094;2023-04-06T03:32:45;9.68;;;6.57;;
13847;SDS011;6994;49.752;6.094;2023-04-06T03:35:12;12.77;;;9.07;;
13847;SDS011;6994;49.752;6.094;2023-04-06T03:37:40;14.48;;;9.70;;
13847;SDS011;6994;49.752;6.094;2023-04-06T03:40:07;9.10;;;6.82;;
13847;SDS011;6994;49.752;6.094;2023-04-06T03:42:34;11.75;;;8.82;;
13847;SDS011;6994;49.752;6.094;2023-04-06T03:45:01;11.57;;;9.02;;
13847;SDS011;6994;49.752;6.094;2023-04-06T03:47:28;11.98;;;8.85;;
13847;SDS011;6994;49.752;6.094;2023-04-06T03:49:56;10.93;;;6.47;;
13847;SDS011;6994;49.752;6.094;2023-04-06T03:52:23;11.10;;;6.62;;
13847;SDS011;6994;49.752;6.094;2023-04-06T03:54:51;8.07;;;6.22;;
13847;SDS011;6994;49.752;6.094;2023-04-06T03:57:18;10.20;;;7.00;;
13847;SDS011;6994;49.752;6.094;2023-04-06T03:59:45;7.50;;;5.70;;
13847;SDS011;6994;49.752;6.094;2023-04-06T04:02:12;6.95;;;5.47;;
13847;SDS011;6994;49.752;6.094;2023-04-06T04:04:40;8.38;;;6.35;;
13847;SDS011;6994;49.752;6.094;2023-04-06T04:07:07;8.27;;;6.22;;
13847;SDS011;6994;49.752;6.094;2023-04-06T04:09:34;10.43;;;7.00;;
13847;SDS011;6994;49.752;6.094;2023-04-06T04:12:01;9.38;;;6.82;;
13847;SDS011;6994;49.752;6.094;2023-04-06T04:14:28;8.57;;;6.40;;
13847;SDS011;6994;49.752;6.094;2023-04-06T04:16:56;8.23;;;6.15;;
13847;SDS011;6994;49.752;6.094;2023-04-06T04:19:23;7.50;;;5.50;;
13847;SDS011;6994;49.752;6.094;2023-04-06T04:21:50;13.18;;;6.72;;
13847;SDS011;6994;49.752;6.094;2023-04-06T04:24:17;8.77;;;6.15;;
13847;SDS011;6994;49.752;6.094;2023-04-06T04:26:44;10.25;;;7.05;;
13847;SDS011;6994;49.752;6.094;2023-04-06T04:29:12;10.57;;;6.20;;
13847;SDS011;6994;49.752;6.094;2023-04-06T04:31:40;11.93;;;6.32;;
13847;SDS011;6994;49.752;6.094;2023-04-06T04:34:08;10.60;;;6.50;;
13847;SDS011;6994;49.752;6.094;2023-04-06T04:36:35;13.18;;;7.22;;
13847;SDS011;6994;49.752;6.094;2023-04-06T04:39:04;10.35;;;6.97;;
13847;SDS011;6994;49.752;6.094;2023-04-06T04:41:31;9.40;;;6.10;;
13847;SDS011;6994;49.752;6.094;2023-04-06T04:43:59;9.45;;;6.35;;
13847;SDS011;6994;49.752;6.094;2023-04-06T04:46:26;9.35;;;6.87;;
13847;SDS011;6994;49.752;6.094;2023-04-06T04:48:53;11.10;;;7.00;;
13847;SDS011;6994;49.752;6.094;2023-04-06T04:51:20;10.90;;;8.38;;
13847;SDS011;6994;49.752;6.094;2023-04-06T04:53:47;9.93;;;8.57;;
13847;SDS011;6994;49.752;6.094;2023-04-06T04:56:15;9.48;;;6.47;;
13847;SDS011;6994;49.752;6.094;2023-04-06T04:58:42;9.85;;;6.80;;
13847;SDS011;6994;49.752;6.094;2023-04-06T05:01:09;9.93;;;6.15;;
13847;SDS011;6994;49.752;6.094;2023-04-06T05:03:36;11.90;;;6.95;;
13847;SDS011;6994;49.752;6.094;2023-04-06T05:06:04;10.07;;;6.78;;
13847;SDS011;6994;49.752;6.094;2023-04-06T05:08:31;8.73;;;5.87;;
13847;SDS011;6994;49.752;6.094;2023-04-06T05:10:58;8.10;;;6.07;;
13847;SDS011;6994;49.752;6.094;2023-04-06T05:13:25;7.87;;;6.50;;
13847;SDS011;6994;49.752;6.094;2023-04-06T05:15:52;8.48;;;6.20;;
13847;SDS011;6994;49.752;6.094;2023-04-06T05:18:19;13.38;;;6.85;;
13847;SDS011;6994;49.752;6.094;2023-04-06T05:20:47;10.05;;;6.37;;
13847;SDS011;6994;49.752;6.094;2023-04-06T05:23:14;10.32;;;6.25;;
13847;SDS011;6994;49.752;6.094;2023-04-06T05:25:42;11.90;;;7.12;;
13847;SDS011;6994;49.752;6.094;2023-04-06T05:28:09;9.20;;;7.00;;
13847;SDS011;6994;49.752;6.094;2023-04-06T05:30:36;10.05;;;6.62;;
13847;SDS011;6994;49.752;6.094;2023-04-06T05:33:03;8.40;;;7.05;;
13847;SDS011;6994;49.752;6.094;2023-04-06T05:35:31;8.82;;;6.40;;
13847;SDS011;6994;49.752;6.094;2023-04-06T05:37:58;13.77;;;9.50;;
13847;SDS011;6994;49.752;6.094;2023-04-06T05:40:25;10.38;;;7.32;;
13847;SDS011;6994;49.752;6.094;2023-04-06T05:42:52;10.00;;;7.25;;
13847;SDS011;6994;49.752;6.094;2023-04-06T05:45:19;9.10;;;7.05;;
13847;SDS011;6994;49.752;6.094;2023-04-06T05:47:47;13.77;;;8.60;;
13847;SDS011;6994;49.752;6.094;2023-04-06T05:50:14;9.13;;;6.32;;
13847;SDS011;6994;49.752;6.094;2023-04-06T05:52:41;9.18;;;5.75;;
13847;SDS011;6994;49.752;6.094;2023-04-06T05:55:08;9.05;;;5.93;;
13847;SDS011;6994;49.752;6.094;2023-04-06T05:57:35;10.85;;;6.12;;
13847;SDS011;6994;49.752;6.094;2023-04-06T06:00:03;10.40;;;6.55;;
13847;SDS011;6994;49.752;6.094;2023-04-06T06:02:30;7.90;;;6.12;;
13847;SDS011;6994;49.752;6.094;2023-04-06T06:04:57;11.12;;;6.57;;
13847;SDS011;6994;49.752;6.094;2023-04-06T06:07:24;8.70;;;6.37;;
13847;SDS011;6994;49.752;6.094;2023-04-06T06:09:51;7.68;;;5.93;;
13847;SDS011;6994;49.752;6.094;2023-04-06T06:12:19;9.40;;;7.53;;
13847;SDS011;6994;49.752;6.094;2023-04-06T06:14:46;7.12;;;5.72;;
13847;SDS011;6994;49.752;6.094;2023-04-06T06:17:13;10.70;;;6.80;;
13847;SDS011;6994;49.752;6.094;2023-04-06T06:19:40;8.85;;;6.15;;
13847;SDS011;6994;49.752;6.094;2023-04-06T06:22:08;10.15;;;8.40;;
13847;SDS011;6994;49.752;6.094;2023-04-06T06:24:35;11.35;;;6.80;;
13847;SDS011;6994;49.752;6.094;2023-04-06T06:27:03;11.25;;;6.28;;
13847;SDS011;6994;49.752;6.094;2023-04-06T06:29:30;7.97;;;5.97;;
13847;SDS011;6994;49.752;6.094;2023-04-06T06:31:57;9.10;;;5.10;;
13847;SDS011;6994;49.752;6.094;2023-04-06T06:34:24;7.95;;;6.28;;
13847;SDS011;6994;49.752;6.094;2023-04-06T06:36:51;7.78;;;6.05;;
13847;SDS011;6994;49.752;6.094;2023-04-06T06:39:19;10.43;;;5.97;;
13847;SDS011;6994;49.752;6.094;2023-04-06T06:41:46;9.77;;;6.75;;
13847;SDS011;6994;49.752;6.094;2023-04-06T06:44:13;9.93;;;7.60;;
13847;SDS011;6994;49.752;6.094;2023-04-06T06:46:40;13.73;;;8.63;;
13847;SDS011;6994;49.752;6.094;2023-04-06T06:49:08;11.43;;;6.85;;
13847;SDS011;6994;49.752;6.094;2023-04-06T06:51:35;11.50;;;7.53;;
13847;SDS011;6994;49.752;6.094;2023-04-06T06:54:02;9.00;;;6.37;;
13847;SDS011;6994;49.752;6.094;2023-04-06T06:56:29;9.75;;;7.40;;
13847;SDS011;6994;49.752;6.094;2023-04-06T06:58:56;12.35;;;7.47;;
13847;SDS011;6994;49.752;6.094;2023-04-06T07:01:24;9.43;;;6.15;;
13847;SDS011;6994;49.752;6.094;2023-04-06T07:03:51;9.20;;;6.70;;
13847;SDS011;6994;49.752;6.094;2023-04-06T07:06:19;9.98;;;6.68;;
13847;SDS011;6994;49.752;6.094;2023-04-06T07:08:46;12.20;;;7.65;;
13847;SDS011;6994;49.752;6.094;2023-04-06T07:11:13;10.15;;;6.62;;
13847;SDS011;6994;49.752;6.094;2023-04-06T07:13:42;11.10;;;8.10;;
13847;SDS011;6994;49.752;6.094;2023-04-06T07:16:08;11.55;;;7.35;;
13847;SDS011;6994;49.752;6.094;2023-04-06T07:18:35;12.88;;;7.85;;
13847;SDS011;6994;49.752;6.094;2023-04-06T07:21:03;12.75;;;7.45;;
13847;SDS011;6994;49.752;6.094;2023-04-06T07:23:30;11.73;;;8.32;;
13847;SDS011;6994;49.752;6.094;2023-04-06T07:25:58;9.15;;;7.45;;
13847;SDS011;6994;49.752;6.094;2023-04-06T07:28:26;12.02;;;7.50;;
13847;SDS011;6994;49.752;6.094;2023-04-06T07:30:54;11.20;;;7.68;;
13847;SDS011;6994;49.752;6.094;2023-04-06T07:33:22;13.88;;;8.20;;
13847;SDS011;6994;49.752;6.094;2023-04-06T07:35:49;10.43;;;8.23;;
13847;SDS011;6994;49.752;6.094;2023-04-06T07:38:16;10.35;;;7.47;;
13847;SDS011;6994;49.752;6.094;2023-04-06T07:40:44;13.85;;;8.80;;
13847;SDS011;6994;49.752;6.094;2023-04-06T07:43:12;8.88;;;7.43;;
13847;SDS011;6994;49.752;6.094;2023-04-06T07:45:40;11.60;;;7.72;;
13847;SDS011;6994;49.752;6.094;2023-04-06T07:48:08;11.12;;;7.28;;
13847;SDS011;6994;49.752;6.094;2023-04-06T07:50:37;9.43;;;7.68;;
13847;SDS011;6994;49.752;6.094;2023-04-06T07:53:04;11.07;;;7.40;;
13847;SDS011;6994;49.752;6.094;2023-04-06T07:55:31;9.95;;;7.80;;
13847;SDS011;6994;49.752;6.094;2023-04-06T07:57:58;11.12;;;7.15;;
13847;SDS011;6994;49.752;6.094;2023-04-06T08:00:26;14.35;;;8.27;;
13847;SDS011;6994;49.752;6.094;2023-04-06T08:02:53;15.32;;;9.15;;
13847;SDS011;6994;49.752;6.094;2023-04-06T08:05:20;11.77;;;8.15;;
13847;SDS011;6994;49.752;6.094;2023-04-06T08:07:47;14.05;;;8.88;;
13847;SDS011;6994;49.752;6.094;2023-04-06T08:10:14;13.10;;;7.85;;
13847;SDS011;6994;49.752;6.094;2023-04-06T08:12:42;10.07;;;8.23;;
13847;SDS011;6994;49.752;6.094;2023-04-06T08:15:10;10.70;;;7.60;;
13847;SDS011;6994;49.752;6.094;2023-04-06T08:17:37;12.55;;;8.35;;
13847;SDS011;6994;49.752;6.094;2023-04-06T08:20:05;9.90;;;7.82;;
13847;SDS011;6994;49.752;6.094;2023-04-06T08:22:32;13.48;;;8.73;;
13847;SDS011;6994;49.752;6.094;2023-04-06T08:24:59;10.23;;;7.60;;
13847;SDS011;6994;49.752;6.094;2023-04-06T08:27:27;10.00;;;7.82;;
13847;SDS011;6994;49.752;6.094;2023-04-06T08:29:54;12.65;;;8.23;;
13847;SDS011;6994;49.752;6.094;2023-04-06T08:32:21;14.00;;;10.07;;
13847;SDS011;6994;49.752;6.094;2023-04-06T08:34:48;11.93;;;8.45;;
13847;SDS011;6994;49.752;6.094;2023-04-06T08:37:15;11.88;;;8.00;;
13847;SDS011;6994;49.752;6.094;2023-04-06T08:39:43;10.20;;;7.50;;
13847;SDS011;6994;49.752;6.094;2023-04-06T08:42:18;9.68;;;8.40;;
13847;SDS011;6994;49.752;6.094;2023-04-06T08:44:44;9.65;;;8.05;;
13847;SDS011;6994;49.752;6.094;2023-04-06T08:47:11;11.30;;;8.18;;
13847;SDS011;6994;49.752;6.094;2023-04-06T08:49:38;10.80;;;7.95;;
13847;SDS011;6994;49.752;6.094;2023-04-06T08:52:08;11.68;;;7.72;;
13847;SDS011;6994;49.752;6.094;2023-04-06T08:54:35;12.15;;;9.50;;
13847;SDS011;6994;49.752;6.094;2023-04-06T08:57:03;11.45;;;7.95;;
13847;SDS011;6994;49.752;6.094;2023-04-06T08:59:31;11.38;;;8.07;;
13847;SDS011;6994;49.752;6.094;2023-04-06T09:02:01;9.43;;;7.57;;
13847;SDS011;6994;49.752;6.094;2023-04-06T09:04:28;9.70;;;8.05;;
13847;SDS011;6994;49.752;6.094;2023-04-06T09:06:55;9.80;;;7.00;;
13847;SDS011;6994;49.752;6.094;2023-04-06T09:09:22;14.23;;;8.85;;
13847;SDS011;6994;49.752;6.094;2023-04-06T09:11:49;12.73;;;8.18;;
13847;SDS011;6994;49.752;6.094;2023-04-06T09:14:17;13.77;;;9.55;;
13847;SDS011;6994;49.752;6.094;2023-04-06T09:16:44;12.95;;;8.07;;
13847;SDS011;6994;49.752;6.094;2023-04-06T09:19:11;12.45;;;7.47;;
13847;SDS011;6994;49.752;6.094;2023-04-06T09:21:39;10.10;;;7.28;;
13847;SDS011;6994;49.752;6.094;2023-04-06T09:24:07;9.73;;;7.25;;
13847;SDS011;6994;49.752;6.094;2023-04-06T09:26:44;11.48;;;8.57;;
13847;SDS011;6994;49.752;6.094;2023-04-06T09:29:21;9.55;;;7.03;;
13847;SDS011;6994;49.752;6.094;2023-04-06T09:31:38;13.60;;;7.85;;
13847;SDS011;6994;49.752;6.094;2023-04-06T09:34:05;15.55;;;7.45;;
13847;SDS011;6994;49.752;6.094;2023-04-06T09:36:33;10.40;;;7.87;;
13847;SDS011;6994;49.752;6.094;2023-04-06T09:39:03;8.98;;;5.47;;
13847;SDS011;6994;49.752;6.094;2023-04-06T09:41:30;8.52;;;6.00;;
13847;SDS011;6994;49.752;6.094;2023-04-06T09:44:10;12.27;;;6.53;;
13847;SDS011;6994;49.752;6.094;2023-04-06T09:46:37;9.57;;;6.22;;
13847;SDS011;6994;49.752;6.094;2023-04-06T09:49:04;10.23;;;6.25;;
13847;SDS011;6994;49.752;6.094;2023-04-06T09:51:32;12.20;;;7.40;;
13847;SDS011;6994;49.752;6.094;2023-04-06T09:53:58;9.82;;;5.95;;
13847;SDS011;6994;49.752;6.094;2023-04-06T09:56:30;11.45;;;6.75;;
13847;SDS011;6994;49.752;6.094;2023-04-06T09:58:56;11.40;;;6.97;;
13847;SDS011;6994;49.752;6.094;2023-04-06T10:01:23;8.40;;;6.57;;
13847;SDS011;6994;49.752;6.094;2023-04-06T10:04:00;9.20;;;6.62;;
13847;SDS011;6994;49.752;6.094;2023-04-06T10:06:24;9.75;;;6.32;;
13847;SDS011;6994;49.752;6.094;2023-04-06T10:08:52;8.07;;;5.35;;
13847;SDS011;6994;49.752;6.094;2023-04-06T10:11:20;8.70;;;6.30;;
13847;SDS011;6994;49.752;6.094;2023-04-06T10:13:48;10.85;;;7.18;;
13847;SDS011;6994;49.752;6.094;2023-04-06T10:16:16;9.43;;;6.50;;
13847;SDS011;6994;49.752;6.094;2023-04-06T10:18:52;8.95;;;6.00;;
13847;SDS011;6994;49.752;6.094;2023-04-06T10:21:12;9.50;;;6.03;;
13847;SDS011;6994;49.752;6.094;2023-04-06T10:23:46;16.58;;;6.75;;
13847;SDS011;6994;49.752;6.094;2023-04-06T10:26:13;7.85;;;6.47;;
13847;SDS011;6994;49.752;6.094;2023-04-06T10:28:40;8.45;;;6.50;;
13847;SDS011;6994;49.752;6.094;2023-04-06T10:31:06;14.60;;;6.70;;
13847;SDS011;6994;49.752;6.094;2023-04-06T10:33:34;13.93;;;6.37;;
13847;SDS011;6994;49.752;6.094;2023-04-06T10:36:11;9.63;;;6.12;;
13847;SDS011;6994;49.752;6.094;2023-04-06T10:38:41;8.60;;;5.40;;
13847;SDS011;6994;49.752;6.094;2023-04-06T10:41:09;8.00;;;6.30;;
13847;SDS011;6994;49.752;6.094;2023-04-06T10:43:36;8.65;;;6.35;;
13847;SDS011;6994;49.752;6.094;2023-04-06T10:46:03;7.30;;;5.43;;
13847;SDS011;6994;49.752;6.094;2023-04-06T10:48:37;9.13;;;6.70;;
13847;SDS011;6994;49.752;6.094;2023-04-06T10:51:06;8.45;;;5.78;;
13847;SDS011;6994;49.752;6.094;2023-04-06T10:53:31;8.23;;;6.03;;
13847;SDS011;6994;49.752;6.094;2023-04-06T10:55:58;7.45;;;5.32;;
13847;SDS011;6994;49.752;6.094;2023-04-06T10:58:25;7.00;;;5.50;;
13847;SDS011;6994;49.752;6.094;2023-04-06T11:00:52;7.45;;;5.10;;
13847;SDS011;6994;49.752;6.094;2023-04-06T11:03:19;8.05;;;5.03;;
13847;SDS011;6994;49.752;6.094;2023-04-06T11:05:50;8.13;;;6.07;;
13847;SDS011;6994;49.752;6.094;2023-04-06T11:08:24;6.62;;;4.72;;
13847;SDS011;6994;49.752;6.094;2023-04-06T11:11:27;7.03;;;4.50;;
13847;SDS011;6994;49.752;6.094;2023-04-06T11:13:40;6.18;;;4.60;;
13847;SDS011;6994;49.752;6.094;2023-04-06T11:16:03;10.43;;;5.45;;
13847;SDS011;6994;49.752;6.094;2023-04-06T11:18:31;6.95;;;4.82;;
13847;SDS011;6994;49.752;6.094;2023-04-06T11:20:57;7.93;;;4.85;;
13847;SDS011;6994;49.752;6.094;2023-04-06T11:23:24;6.53;;;4.93;;
13847;SDS011;6994;49.752;6.094;2023-04-06T11:25:52;7.87;;;5.22;;
13847;SDS011;6994;49.752;6.094;2023-04-06T11:28:19;8.40;;;5.70;;
13847;SDS011;6994;49.752;6.094;2023-04-06T11:30:46;7.75;;;4.95;;
13847;SDS011;6994;49.752;6.094;2023-04-06T11:33:20;7.45;;;4.60;;
13847;SDS011;6994;49.752;6.094;2023-04-06T11:35:41;5.10;;;4.60;;
13847;SDS011;6994;49.752;6.094;2023-04-06T11:38:08;7.10;;;4.90;;
13847;SDS011;6994;49.752;6.094;2023-04-06T11:40:35;4.87;;;4.30;;
13847;SDS011;6994;49.752;6.094;2023-04-06T11:43:03;4.97;;;3.75;;
13847;SDS011;6994;49.752;6.094;2023-04-06T11:45:38;5.40;;;4.35;;
13847;SDS011;6994;49.752;6.094;2023-04-06T11:47:57;4.80;;;3.75;;
13847;SDS011;6994;49.752;6.094;2023-04-06T11:50:24;6.28;;;4.85;;
13847;SDS011;6994;49.752;6.094;2023-04-06T11:52:57;6.07;;;4.32;;
13847;SDS011;6994;49.752;6.094;2023-04-06T11:55:24;7.80;;;5.68;;
13847;SDS011;6994;49.752;6.094;2023-04-06T11:57:51;5.70;;;4.28;;
13847;SDS011;6994;49.752;6.094;2023-04-06T12:00:19;5.62;;;4.60;;
13847;SDS011;6994;49.752;6.094;2023-04-06T12:02:46;6.75;;;4.10;;
13847;SDS011;6994;49.752;6.094;2023-04-06T12:05:13;9.07;;;5.45;;
13847;SDS011;6994;49.752;6.094;2023-04-06T12:07:40;9.52;;;4.43;;
13847;SDS011;6994;49.752;6.094;2023-04-06T12:10:07;6.37;;;4.43;;
13847;SDS011;6994;49.752;6.094;2023-04-06T12:12:35;6.30;;;4.55;;
13847;SDS011;6994;49.752;6.094;2023-04-06T12:15:02;4.93;;;4.18;;
13847;SDS011;6994;49.752;6.094;2023-04-06T12:17:29;8.48;;;5.93;;
13847;SDS011;6994;49.752;6.094;2023-04-06T12:19:56;5.97;;;5.30;;
13847;SDS011;6994;49.752;6.094;2023-04-06T12:22:24;6.70;;;4.85;;
13847;SDS011;6994;49.752;6.094;2023-04-06T12:24:51;4.62;;;3.90;;
13847;SDS011;6994;49.752;6.094;2023-04-06T12:27:18;5.82;;;4.43;;
13847;SDS011;6994;49.752;6.094;2023-04-06T12:29:46;6.72;;;4.68;;
13847;SDS011;6994;49.752;6.094;2023-04-06T12:32:14;5.28;;;3.97;;
13847;SDS011;6994;49.752;6.094;2023-04-06T12:34:41;7.32;;;4.60;;
13847;SDS011;6994;49.752;6.094;2023-04-06T12:37:08;4.53;;;3.15;;
13847;SDS011;6994;49.752;6.094;2023-04-06T12:39:35;3.33;;;3.03;;
13847;SDS011;6994;49.752;6.094;2023-04-06T12:42:03;3.75;;;3.33;;
13847;SDS011;6994;49.752;6.094;2023-04-06T12:44:31;5.20;;;3.90;;
13847;SDS011;6994;49.752;6.094;2023-04-06T12:46:58;5.45;;;3.20;;
13847;SDS011;6994;49.752;6.094;2023-04-06T12:49:25;5.22;;;3.25;;
13847;SDS011;6994;49.752;6.094;2023-04-06T12:51:53;3.90;;;3.45;;
13847;SDS011;6994;49.752;6.094;2023-04-06T12:54:20;4.85;;;2.70;;
13847;SDS011;6994;49.752;6.094;2023-04-06T12:56:47;3.15;;;2.60;;
13847;SDS011;6994;49.752;6.094;2023-04-06T12:59:15;3.50;;;2.78;;
13847;SDS011;6994;49.752;6.094;2023-04-06T13:01:42;3.97;;;3.30;;
13847;SDS011;6994;49.752;6.094;2023-04-06T13:04:10;6.90;;;3.53;;
13847;SDS011;6994;49.752;6.094;2023-04-06T13:06:38;4.07;;;3.42;;
13847;SDS011;6994;49.752;6.094;2023-04-06T13:09:06;3.95;;;2.72;;
13847;SDS011;6994;49.752;6.094;2023-04-06T13:11:33;3.85;;;2.75;;
13847;SDS011;6994;49.752;6.094;2023-04-06T13:14:00;4.87;;;2.80;;
13847;SDS011;6994;49.752;6.094;2023-04-06T13:16:28;3.30;;;2.47;;
13847;SDS011;6994;49.752;6.094;2023-04-06T13:18:55;3.75;;;2.75;;
13847;SDS011;6994;49.752;6.094;2023-04-06T13:21:23;5.30;;;3.00;;
13847;SDS011;6994;49.752;6.094;2023-04-06T13:23:50;5.78;;;3.53;;
13847;SDS011;6994;49.752;6.094;2023-04-06T13:26:17;5.25;;;4.47;;
13847;SDS011;6994;49.752;6.094;2023-04-06T13:28:44;6.35;;;3.55;;
13847;SDS011;6994;49.752;6.094;2023-04-06T13:31:11;3.85;;;3.55;;
13847;SDS011;6994;49.752;6.094;2023-04-06T13:33:39;4.85;;;3.53;;
13847;SDS011;6994;49.752;6.094;2023-04-06T13:36:06;4.82;;;3.72;;
13847;SDS011;6994;49.752;6.094;2023-04-06T13:38:34;4.40;;;3.08;;
13847;SDS011;6994;49.752;6.094;2023-04-06T13:41:02;6.95;;;4.45;;
13847;SDS011;6994;49.752;6.094;2023-04-06T13:43:30;5.68;;;3.08;;
13847;SDS011;6994;49.752;6.094;2023-04-06T13:45:57;4.20;;;2.92;;
13847;SDS011;6994;49.752;6.094;2023-04-06T13:48:24;7.72;;;3.30;;
13847;SDS011;6994;49.752;6.094;2023-04-06T13:50:51;5.10;;;2.87;;
13847;SDS011;6994;49.752;6.094;2023-04-06T13:53:18;4.32;;;3.53;;
13847;SDS011;6994;49.752;6.094;2023-04-06T13:55:52;4.78;;;4.37;;
13847;SDS011;6994;49.752;6.094;2023-04-06T13:58:19;8.70;;;3.75;;
13847;SDS011;6994;49.752;6.094;2023-04-06T14:00:46;3.83;;;3.30;;
13847;SDS011;6994;49.752;6.094;2023-04-06T14:03:13;3.60;;;2.75;;
13847;SDS011;6994;49.752;6.094;2023-04-06T14:05:40;5.18;;;4.18;;
13847;SDS011;6994;49.752;6.094;2023-04-06T14:08:07;5.22;;;4.05;;
13847;SDS011;6994;49.752;6.094;2023-04-06T14:10:38;4.03;;;3.33;;
13847;SDS011;6994;49.752;6.094;2023-04-06T14:13:07;5.55;;;4.18;;
13847;SDS011;6994;49.752;6.094;2023-04-06T14:15:35;4.28;;;3.42;;
13847;SDS011;6994;49.752;6.094;2023-04-06T14:18:02;6.95;;;3.35;;
13847;SDS011;6994;49.752;6.094;2023-04-06T14:20:32;5.80;;;3.03;;
13847;SDS011;6994;49.752;6.094;2023-04-06T14:23:00;6.57;;;3.83;;
13847;SDS011;6994;49.752;6.094;2023-04-06T14:25:27;4.20;;;3.37;;
13847;SDS011;6994;49.752;6.094;2023-04-06T14:27:54;4.95;;;3.30;;
13847;SDS011;6994;49.752;6.094;2023-04-06T14:30:21;5.03;;;3.12;;
13847;SDS011;6994;49.752;6.094;2023-04-06T14:32:48;3.85;;;3.05;;
13847;SDS011;6994;49.752;6.094;2023-04-06T14:35:16;6.20;;;3.80;;
13847;SDS011;6994;49.752;6.094;2023-04-06T14:37:43;5.95;;;3.95;;
13847;SDS011;6994;49.752;6.094;2023-04-06T14:40:10;5.37;;;3.50;;
13847;SDS011;6994;49.752;6.094;2023-04-06T14:42:37;4.75;;;3.95;;
13847;SDS011;6994;49.752;6.094;2023-04-06T14:45:04;3.97;;;3.58;;
13847;SDS011;6994;49.752;6.094;2023-04-06T14:47:32;7.28;;;3.90;;
13847;SDS011;6994;49.752;6.094;2023-04-06T14:50:00;5.97;;;5.10;;
13847;SDS011;6994;49.752;6.094;2023-04-06T14:52:27;5.70;;;4.40;;
13847;SDS011;6994;49.752;6.094;2023-04-06T14:54:54;4.47;;;3.70;;
13847;SDS011;6994;49.752;6.094;2023-04-06T14:57:21;7.30;;;4.00;;
13847;SDS011;6994;49.752;6.094;2023-04-06T14:59:48;5.85;;;4.40;;